DLH125 EDDM-EDDF
Flight info
| Callsign | DLH125 |
|---|---|
| Flight time | 0h 39m |
| Altitude | 24000 |
| Route | GIVMI1N GIVMI Y101 ERNAS T161 DEBHI DEBHI1B |
| Aircraft | A321/M-SDE3FGHIRWY/LB1 |
Departure
| Time | 2026-05-06 02:38 |
|---|---|
| Airport | Munich Airport (EDDM) |
Arrival
| Time | 2026-05-06 03:17 |
|---|---|
| Airport | Frankfurt Main Airport (EDDF) |
| Time | Latitude | Longitude | Altitude | Speed | Heading |
|---|---|---|---|---|---|
| 2026-05-06 02:07 | 48.35619 | 11.79704 | 1476 ft | 0 kts | 83° |
| 2026-05-06 02:24 | 48.35616 | 11.79675 | 1475 ft | 4 kts | 83° |
| 2026-05-06 02:25 | 48.35613 | 11.79636 | 1476 ft | 3 kts | 83° |
| 2026-05-06 02:25 | 48.35610 | 11.79606 | 1478 ft | 4 kts | 70° |
| 2026-05-06 02:25 | 48.35597 | 11.79575 | 1473 ft | 4 kts | 26° |
| 2026-05-06 02:25 | 48.35574 | 11.79569 | 1475 ft | 4 kts | 353° |
| 2026-05-06 02:26 | 48.35556 | 11.79572 | 1477 ft | 0 kts | 353° |
| 2026-05-06 02:27 | 48.35557 | 11.79572 | 1477 ft | 0 kts | 353° |
| 2026-05-06 02:28 | 48.35558 | 11.79572 | 1477 ft | 0 kts | 353° |
| 2026-05-06 02:28 | 48.35559 | 11.79572 | 1477 ft | 0 kts | 353° |
| 2026-05-06 02:29 | 48.35560 | 11.79571 | 1477 ft | 0 kts | 353° |
| 2026-05-06 02:30 | 48.35567 | 11.79570 | 1476 ft | 4 kts | 353° |
| 2026-05-06 02:30 | 48.35619 | 11.79561 | 1476 ft | 10 kts | 353° |
| 2026-05-06 02:30 | 48.35677 | 11.79551 | 1485 ft | 7 kts | 353° |
| 2026-05-06 02:31 | 48.35732 | 11.79542 | 1485 ft | 9 kts | 353° |
| 2026-05-06 02:31 | 48.35800 | 11.79530 | 1480 ft | 11 kts | 353° |
| 2026-05-06 02:31 | 48.35880 | 11.79516 | 1482 ft | 12 kts | 353° |
| 2026-05-06 02:31 | 48.35970 | 11.79500 | 1478 ft | 14 kts | 353° |
| 2026-05-06 02:32 | 48.36062 | 11.79484 | 1475 ft | 13 kts | 353° |
| 2026-05-06 02:32 | 48.36155 | 11.79467 | 1481 ft | 14 kts | 353° |
| 2026-05-06 02:32 | 48.36219 | 11.79551 | 1485 ft | 14 kts | 76° |
| 2026-05-06 02:32 | 48.36231 | 11.79703 | 1482 ft | 15 kts | 83° |
| 2026-05-06 02:33 | 48.36244 | 11.79871 | 1483 ft | 17 kts | 83° |
| 2026-05-06 02:33 | 48.36254 | 11.79990 | 1485 ft | 18 kts | 83° |
| 2026-05-06 02:33 | 48.36289 | 11.80451 | 1482 ft | 19 kts | 83° |
| 2026-05-06 02:34 | 48.36304 | 11.80644 | 1485 ft | 19 kts | 83° |
| 2026-05-06 02:34 | 48.36315 | 11.80791 | 1478 ft | 14 kts | 83° |
| 2026-05-06 02:34 | 48.36327 | 11.80945 | 1482 ft | 16 kts | 83° |
| 2026-05-06 02:34 | 48.36339 | 11.81111 | 1476 ft | 16 kts | 83° |
| 2026-05-06 02:35 | 48.36353 | 11.81288 | 1472 ft | 18 kts | 83° |
| 2026-05-06 02:35 | 48.36367 | 11.81455 | 1480 ft | 16 kts | 83° |
| 2026-05-06 02:35 | 48.36380 | 11.81629 | 1473 ft | 17 kts | 83° |
| 2026-05-06 02:35 | 48.36394 | 11.81808 | 1475 ft | 15 kts | 83° |
| 2026-05-06 02:36 | 48.36400 | 11.81945 | 1485 ft | 13 kts | 77° |
| 2026-05-06 02:36 | 48.36471 | 11.81996 | 1477 ft | 8 kts | 355° |
| 2026-05-06 02:36 | 48.36531 | 11.81987 | 1482 ft | 9 kts | 354° |
| 2026-05-06 02:36 | 48.36601 | 11.81976 | 1485 ft | 11 kts | 354° |
| 2026-05-06 02:37 | 48.36665 | 11.81927 | 1473 ft | 11 kts | 290° |
| 2026-05-06 02:37 | 48.36657 | 11.81725 | 1484 ft | 36 kts | 263° |
| 2026-05-06 02:37 | 48.36597 | 11.80962 | 1476 ft | 108 kts | 263° |
| 2026-05-06 02:37 | 48.36486 | 11.79526 | 1488 ft | 165 kts | 263° |
| 2026-05-06 02:38 | 48.36364 | 11.77717 | 1974 ft | 176 kts | 263° |
| 2026-05-06 02:38 | 48.36238 | 11.75889 | 2782 ft | 176 kts | 264° |
| 2026-05-06 02:38 | 48.36099 | 11.74020 | 3157 ft | 190 kts | 264° |
| 2026-05-06 02:38 | 48.35936 | 11.71938 | 3407 ft | 210 kts | 264° |
| 2026-05-06 02:39 | 48.35762 | 11.69726 | 4017 ft | 215 kts | 265° |
| 2026-05-06 02:39 | 48.35940 | 11.67489 | 4739 ft | 222 kts | 289° |
| 2026-05-06 02:39 | 48.36725 | 11.65353 | 5063 ft | 245 kts | 299° |
| 2026-05-06 02:39 | 48.37646 | 11.63128 | 5648 ft | 254 kts | 299° |
| 2026-05-06 02:40 | 48.38591 | 11.60844 | 6353 ft | 260 kts | 299° |
| 2026-05-06 02:40 | 48.39555 | 11.58505 | 7031 ft | 265 kts | 298° |
| 2026-05-06 02:40 | 48.40528 | 11.56128 | 7729 ft | 269 kts | 298° |
| 2026-05-06 02:40 | 48.41512 | 11.53712 | 8438 ft | 273 kts | 297° |
| 2026-05-06 02:41 | 48.42508 | 11.51256 | 9146 ft | 277 kts | 297° |
| 2026-05-06 02:41 | 48.43519 | 11.48765 | 9846 ft | 281 kts | 297° |
| 2026-05-06 02:41 | 48.44581 | 11.46272 | 10483 ft | 287 kts | 304° |
| 2026-05-06 02:41 | 48.46032 | 11.44149 | 11122 ft | 296 kts | 321° |
| 2026-05-06 02:42 | 48.47901 | 11.42654 | 11450 ft | 318 kts | 338° |
| 2026-05-06 02:42 | 48.50148 | 11.41911 | 11587 ft | 342 kts | 347° |
| 2026-05-06 02:42 | 48.52561 | 11.41276 | 11735 ft | 361 kts | 347° |
| 2026-05-06 02:42 | 48.55068 | 11.40607 | 12163 ft | 370 kts | 347° |
| 2026-05-06 02:43 | 48.57615 | 11.39921 | 12765 ft | 373 kts | 347° |
| 2026-05-06 02:43 | 48.60146 | 11.39237 | 13386 ft | 376 kts | 347° |
| 2026-05-06 02:43 | 48.62765 | 11.38523 | 13964 ft | 379 kts | 347° |
| 2026-05-06 02:43 | 48.65369 | 11.37803 | 14500 ft | 382 kts | 347° |
| 2026-05-06 02:44 | 48.67988 | 11.37032 | 15022 ft | 384 kts | 342° |
| 2026-05-06 02:44 | 48.70480 | 11.35730 | 15498 ft | 384 kts | 332° |
| 2026-05-06 02:44 | 48.72838 | 11.33736 | 16022 ft | 383 kts | 322° |
| 2026-05-06 02:44 | 48.75056 | 11.31472 | 16561 ft | 386 kts | 322° |
| 2026-05-06 02:45 | 48.77293 | 11.29191 | 17091 ft | 389 kts | 322° |
| 2026-05-06 02:45 | 48.79522 | 11.26929 | 17620 ft | 392 kts | 322° |
| 2026-05-06 02:45 | 48.81825 | 11.24599 | 18117 ft | 395 kts | 322° |
| 2026-05-06 02:45 | 48.84108 | 11.22259 | 18541 ft | 396 kts | 319° |
| 2026-05-06 02:46 | 48.86194 | 11.19540 | 18974 ft | 395 kts | 313° |
| 2026-05-06 02:46 | 48.88221 | 11.16705 | 19428 ft | 398 kts | 313° |
| 2026-05-06 02:46 | 48.90261 | 11.13856 | 19858 ft | 400 kts | 313° |
| 2026-05-06 02:46 | 48.92319 | 11.10988 | 20279 ft | 402 kts | 313° |
| 2026-05-06 02:47 | 48.94387 | 11.08116 | 20725 ft | 405 kts | 313° |
| 2026-05-06 02:47 | 48.96445 | 11.05255 | 21150 ft | 407 kts | 313° |
| 2026-05-06 02:47 | 48.98537 | 11.02334 | 21589 ft | 409 kts | 313° |
| 2026-05-06 02:47 | 49.00639 | 10.99389 | 22010 ft | 412 kts | 313° |
| 2026-05-06 02:48 | 49.02752 | 10.96422 | 22434 ft | 415 kts | 313° |
| 2026-05-06 02:48 | 49.04873 | 10.93434 | 22843 ft | 417 kts | 313° |
| 2026-05-06 02:48 | 49.07011 | 10.90422 | 23244 ft | 419 kts | 313° |
| 2026-05-06 02:48 | 49.09160 | 10.87393 | 23622 ft | 422 kts | 313° |
| 2026-05-06 02:49 | 49.10621 | 10.85334 | 23806 ft | 423 kts | 313° |
| 2026-05-06 02:49 | 49.12784 | 10.82275 | 23875 ft | 427 kts | 313° |
| 2026-05-06 02:49 | 49.14970 | 10.79179 | 23893 ft | 429 kts | 313° |
| 2026-05-06 02:49 | 49.17163 | 10.76073 | 23889 ft | 430 kts | 313° |
| 2026-05-06 02:50 | 49.19357 | 10.72967 | 23890 ft | 430 kts | 313° |
| 2026-05-06 02:50 | 49.21516 | 10.69810 | 23891 ft | 429 kts | 311° |
| 2026-05-06 02:50 | 49.23619 | 10.66565 | 23854 ft | 430 kts | 310° |
| 2026-05-06 02:50 | 49.25687 | 10.63265 | 23854 ft | 430 kts | 310° |
| 2026-05-06 02:51 | 49.27743 | 10.59938 | 23852 ft | 430 kts | 310° |
| 2026-05-06 02:51 | 49.29785 | 10.56631 | 23850 ft | 425 kts | 310° |
| 2026-05-06 02:51 | 49.31819 | 10.53359 | 23850 ft | 423 kts | 310° |
| 2026-05-06 02:51 | 49.33855 | 10.50111 | 23851 ft | 423 kts | 310° |
| 2026-05-06 02:52 | 49.35870 | 10.46838 | 23851 ft | 421 kts | 307° |
| 2026-05-06 02:52 | 49.37643 | 10.43268 | 23470 ft | 420 kts | 302° |
| 2026-05-06 02:52 | 49.39325 | 10.39647 | 22975 ft | 414 kts | 302° |
| 2026-05-06 02:52 | 49.40971 | 10.36041 | 22552 ft | 411 kts | 301° |
| 2026-05-06 02:53 | 49.42597 | 10.32443 | 22129 ft | 409 kts | 301° |
| 2026-05-06 02:53 | 49.44209 | 10.28859 | 21722 ft | 407 kts | 301° |
| 2026-05-06 02:53 | 49.45817 | 10.25285 | 21317 ft | 405 kts | 301° |
| 2026-05-06 02:53 | 49.47421 | 10.21739 | 20901 ft | 403 kts | 301° |
| 2026-05-06 02:54 | 49.49024 | 10.18207 | 20506 ft | 401 kts | 301° |
| 2026-05-06 02:54 | 49.50596 | 10.14745 | 20095 ft | 399 kts | 301° |
| 2026-05-06 02:54 | 49.52180 | 10.11253 | 19690 ft | 397 kts | 301° |
| 2026-05-06 02:54 | 49.53755 | 10.07776 | 19269 ft | 395 kts | 301° |
| 2026-05-06 02:55 | 49.55322 | 10.04308 | 18885 ft | 394 kts | 301° |
| 2026-05-06 02:55 | 49.56881 | 10.00847 | 18481 ft | 392 kts | 301° |
| 2026-05-06 02:55 | 49.58428 | 9.97401 | 18080 ft | 390 kts | 301° |
| 2026-05-06 02:55 | 49.59990 | 9.93928 | 17660 ft | 388 kts | 301° |
| 2026-05-06 02:56 | 49.61521 | 9.90520 | 17256 ft | 385 kts | 301° |
| 2026-05-06 02:56 | 49.63020 | 9.87180 | 16873 ft | 383 kts | 301° |
| 2026-05-06 02:56 | 49.64527 | 9.83817 | 16476 ft | 380 kts | 301° |
| 2026-05-06 02:56 | 49.66023 | 9.80470 | 16067 ft | 378 kts | 301° |
| 2026-05-06 02:57 | 49.67508 | 9.77140 | 15698 ft | 375 kts | 301° |
| 2026-05-06 02:57 | 49.68980 | 9.73835 | 15391 ft | 373 kts | 301° |
| 2026-05-06 02:57 | 49.70448 | 9.70532 | 15155 ft | 372 kts | 301° |
| 2026-05-06 02:57 | 49.71907 | 9.67252 | 14793 ft | 370 kts | 301° |
| 2026-05-06 02:58 | 49.73362 | 9.63987 | 14412 ft | 367 kts | 301° |
| 2026-05-06 02:58 | 49.74805 | 9.60746 | 14039 ft | 365 kts | 301° |
| 2026-05-06 02:58 | 49.76234 | 9.57527 | 13665 ft | 362 kts | 301° |
| 2026-05-06 02:58 | 49.77652 | 9.54319 | 13259 ft | 360 kts | 301° |
| 2026-05-06 02:59 | 49.79063 | 9.51124 | 12904 ft | 360 kts | 301° |
| 2026-05-06 02:59 | 49.80471 | 9.47930 | 12529 ft | 358 kts | 301° |
| 2026-05-06 02:59 | 49.81868 | 9.44761 | 12166 ft | 355 kts | 301° |
| 2026-05-06 02:59 | 49.83253 | 9.41616 | 11806 ft | 352 kts | 301° |
| 2026-05-06 03:00 | 49.84627 | 9.38490 | 11450 ft | 350 kts | 301° |
| 2026-05-06 03:00 | 49.85919 | 9.35320 | 11096 ft | 345 kts | 295° |
| 2026-05-06 03:00 | 49.86791 | 9.31894 | 10908 ft | 340 kts | 284° |
| 2026-05-06 03:00 | 49.87449 | 9.28380 | 10782 ft | 337 kts | 284° |
| 2026-05-06 03:01 | 49.88100 | 9.24983 | 10659 ft | 320 kts | 284° |
| 2026-05-06 03:01 | 49.88723 | 9.21762 | 10533 ft | 304 kts | 284° |
| 2026-05-06 03:01 | 49.89317 | 9.18694 | 10409 ft | 290 kts | 284° |
| 2026-05-06 03:01 | 49.89883 | 9.15758 | 10192 ft | 281 kts | 284° |
| 2026-05-06 03:02 | 49.90429 | 9.12890 | 9967 ft | 274 kts | 283° |
| 2026-05-06 03:02 | 49.90966 | 9.10044 | 9857 ft | 274 kts | 283° |
| 2026-05-06 03:02 | 49.91502 | 9.07198 | 9727 ft | 276 kts | 283° |
| 2026-05-06 03:02 | 49.92041 | 9.04343 | 9601 ft | 275 kts | 283° |
| 2026-05-06 03:03 | 49.92578 | 9.01495 | 9458 ft | 275 kts | 283° |
| 2026-05-06 03:03 | 49.93115 | 8.98653 | 9323 ft | 274 kts | 283° |
| 2026-05-06 03:03 | 49.93650 | 8.95818 | 9189 ft | 273 kts | 283° |
| 2026-05-06 03:03 | 49.94184 | 8.92996 | 9055 ft | 273 kts | 284° |
| 2026-05-06 03:04 | 49.95055 | 8.90371 | 8921 ft | 278 kts | 306° |
| 2026-05-06 03:04 | 49.96569 | 8.88473 | 8790 ft | 285 kts | 330° |
| 2026-05-06 03:04 | 49.98493 | 8.87665 | 8652 ft | 293 kts | 354° |
| 2026-05-06 03:04 | 50.00507 | 8.88188 | 8525 ft | 299 kts | 21° |
| 2026-05-06 03:05 | 50.02212 | 8.90027 | 8396 ft | 302 kts | 48° |
| 2026-05-06 03:05 | 50.03248 | 8.92846 | 8264 ft | 302 kts | 72° |
| 2026-05-06 03:05 | 50.03911 | 8.95955 | 8138 ft | 303 kts | 71° |
| 2026-05-06 03:05 | 50.04616 | 8.99035 | 7870 ft | 299 kts | 70° |
| 2026-05-06 03:06 | 50.05333 | 9.02045 | 7142 ft | 296 kts | 70° |
| 2026-05-06 03:06 | 50.06050 | 9.05025 | 6410 ft | 293 kts | 70° |
| 2026-05-06 03:06 | 50.06761 | 9.07984 | 5683 ft | 290 kts | 69° |
| 2026-05-06 03:06 | 50.07456 | 9.10917 | 4970 ft | 287 kts | 69° |
| 2026-05-06 03:07 | 50.08135 | 9.13816 | 4290 ft | 282 kts | 70° |
| 2026-05-06 03:07 | 50.08804 | 9.16675 | 4061 ft | 284 kts | 69° |
| 2026-05-06 03:07 | 50.09818 | 9.19258 | 4013 ft | 280 kts | 39° |
| 2026-05-06 03:07 | 50.11441 | 9.20712 | 4021 ft | 256 kts | 9° |
| 2026-05-06 03:08 | 50.13137 | 9.20863 | 4047 ft | 239 kts | 345° |
| 2026-05-06 03:08 | 50.14641 | 9.19952 | 4031 ft | 229 kts | 321° |
| 2026-05-06 03:08 | 50.15736 | 9.18233 | 4024 ft | 221 kts | 299° |
| 2026-05-06 03:08 | 50.16328 | 9.16069 | 4019 ft | 217 kts | 284° |
| 2026-05-06 03:09 | 50.16673 | 9.13783 | 4023 ft | 217 kts | 275° |
| 2026-05-06 03:09 | 50.16708 | 9.11453 | 4021 ft | 215 kts | 264° |
| 2026-05-06 03:09 | 50.16432 | 9.09162 | 4022 ft | 215 kts | 253° |
| 2026-05-06 03:09 | 50.15924 | 9.06961 | 4021 ft | 216 kts | 249° |
| 2026-05-06 03:10 | 50.15381 | 9.04760 | 4023 ft | 217 kts | 249° |
| 2026-05-06 03:10 | 50.14855 | 9.02568 | 4023 ft | 216 kts | 250° |
| 2026-05-06 03:10 | 50.14336 | 9.00352 | 4026 ft | 222 kts | 250° |
| 2026-05-06 03:10 | 50.13822 | 8.98155 | 4016 ft | 208 kts | 250° |
| 2026-05-06 03:11 | 50.13345 | 8.96113 | 4014 ft | 196 kts | 250° |
| 2026-05-06 03:11 | 50.12878 | 8.94121 | 4016 ft | 197 kts | 250° |
| 2026-05-06 03:11 | 50.12407 | 8.92111 | 4017 ft | 197 kts | 250° |
| 2026-05-06 03:11 | 50.11937 | 8.90110 | 4015 ft | 197 kts | 250° |
| 2026-05-06 03:12 | 50.11466 | 8.88102 | 4015 ft | 198 kts | 250° |
| 2026-05-06 03:12 | 50.10993 | 8.86091 | 3971 ft | 198 kts | 250° |
| 2026-05-06 03:12 | 50.10533 | 8.84135 | 3793 ft | 186 kts | 250° |
| 2026-05-06 03:12 | 50.10100 | 8.82298 | 3558 ft | 175 kts | 250° |
| 2026-05-06 03:13 | 50.09692 | 8.80564 | 3329 ft | 166 kts | 249° |
| 2026-05-06 03:13 | 50.09302 | 8.78910 | 3115 ft | 159 kts | 249° |
| 2026-05-06 03:13 | 50.08928 | 8.77328 | 2908 ft | 152 kts | 249° |
| 2026-05-06 03:13 | 50.08577 | 8.75840 | 2714 ft | 142 kts | 250° |
| 2026-05-06 03:14 | 50.08239 | 8.74413 | 2516 ft | 140 kts | 249° |
| 2026-05-06 03:14 | 50.07906 | 8.73003 | 2342 ft | 138 kts | 249° |
| 2026-05-06 03:14 | 50.07575 | 8.71603 | 2143 ft | 138 kts | 249° |
| 2026-05-06 03:14 | 50.07244 | 8.70206 | 1955 ft | 137 kts | 249° |
| 2026-05-06 03:15 | 50.06914 | 8.68814 | 1766 ft | 137 kts | 249° |
| 2026-05-06 03:15 | 50.06585 | 8.67429 | 1586 ft | 137 kts | 248° |
| 2026-05-06 03:15 | 50.06256 | 8.66041 | 1398 ft | 136 kts | 248° |
| 2026-05-06 03:15 | 50.05925 | 8.64646 | 1205 ft | 137 kts | 249° |
| 2026-05-06 03:16 | 50.05592 | 8.63246 | 1014 ft | 138 kts | 248° |
| 2026-05-06 03:16 | 50.05259 | 8.61847 | 823 ft | 139 kts | 246° |
| 2026-05-06 03:16 | 50.04924 | 8.60441 | 651 ft | 138 kts | 245° |
| 2026-05-06 03:16 | 50.04589 | 8.59031 | 467 ft | 140 kts | 247° |
| 2026-05-06 03:17 | 50.04261 | 8.57656 | 368 ft | 125 kts | 249° |
| 2026-05-06 03:17 | 50.04016 | 8.56620 | 358 ft | 78 kts | 250° |
| 2026-05-06 03:17 | 50.03901 | 8.56119 | 354 ft | 26 kts | 256° |
| 2026-05-06 03:17 | 50.03889 | 8.55834 | 350 ft | 28 kts | 277° |
| 2026-05-06 03:18 | 50.03911 | 8.55601 | 352 ft | 6 kts | 281° |
| 2026-05-06 03:18 | 50.03920 | 8.55537 | 349 ft | 5 kts | 287° |
| 2026-05-06 03:18 | 50.03946 | 8.55486 | 354 ft | 8 kts | 324° |
| 2026-05-06 03:18 | 50.04003 | 8.55446 | 353 ft | 9 kts | 338° |
| 2026-05-06 03:19 | 50.04065 | 8.55410 | 355 ft | 10 kts | 344° |
| 2026-05-06 03:19 | 50.04121 | 8.55453 | 356 ft | 11 kts | 58° |
| 2026-05-06 03:19 | 50.04151 | 8.55568 | 352 ft | 12 kts | 70° |
| 2026-05-06 03:19 | 50.04182 | 8.55699 | 352 ft | 13 kts | 70° |
| 2026-05-06 03:20 | 50.04248 | 8.55980 | 359 ft | 13 kts | 69° |
| 2026-05-06 03:20 | 50.04310 | 8.56067 | 360 ft | 13 kts | 359° |
| 2026-05-06 03:20 | 50.04397 | 8.56032 | 358 ft | 13 kts | 357° |
| 2026-05-06 03:21 | 50.04453 | 8.56119 | 358 ft | 11 kts | 69° |
| 2026-05-06 03:21 | 50.04481 | 8.56235 | 358 ft | 11 kts | 70° |
| 2026-05-06 03:21 | 50.04507 | 8.56346 | 362 ft | 9 kts | 70° |
| 2026-05-06 03:21 | 50.04527 | 8.56431 | 357 ft | 8 kts | 70° |
| 2026-05-06 03:22 | 50.04536 | 8.56469 | 361 ft | 1 kts | 71° |
| 2026-05-06 03:22 | 50.04536 | 8.56484 | 361 ft | 2 kts | 89° |
| 2026-05-06 03:22 | 50.04526 | 8.56509 | 362 ft | 3 kts | 133° |
| 2026-05-06 03:22 | 50.04501 | 8.56529 | 360 ft | 5 kts | 160° |
| 2026-05-06 03:23 | 50.04490 | 8.56533 | 356 ft | 2 kts | 165° |
| 2026-05-06 03:23 | 50.04482 | 8.56537 | 359 ft | 1 kts | 165° |
| 2026-05-06 03:23 | 50.04480 | 8.56538 | 358 ft | 0 kts | 165° |